Time;durP1;ratioP1;P1;durP2;ratioP2;P2;SDS_P1;SDS_P2;PMS_P1;PMS_P2;Temp;Humidity;BMP_temperature;BMP_pressure;BME280_temperature;BME280_humidity;BME280_pressure;Samples;Min_cycle;Max_cycle;Signal;HPM_P1;HPM_P2
2022/09/29 00:02:06;;;;;;;10.30;4.33;;;;;;;7.34;100.00;99456.19;6000567;28;20027;-65
2022/09/29 00:05:01;;;;;;;8.73;4.10;;;;;;;7.15;100.00;99449.28;6001191;28;20062;-65
2022/09/29 00:07:57;;;;;;;8.65;4.07;;;;;;;6.95;100.00;99443.41;6000607;28;20308;-65
2022/09/29 00:10:53;;;;;;;7.18;4.35;;;;;;;6.78;100.00;99460.09;6000435;28;20141;-65
2022/09/29 00:13:48;;;;;;;7.80;3.85;;;;;;;6.65;100.00;99459.66;6001931;28;20126;-65
2022/09/29 00:16:45;;;;;;;11.77;4.97;;;;;;;6.58;100.00;99448.88;6003921;28;20030;-65
2022/09/29 00:19:40;;;;;;;11.77;4.97;;;;;;;6.60;100.00;99462.72;6000800;28;20089;-65
2022/09/29 00:22:36;;;;;;;17.98;5.32;;;;;;;6.54;100.00;99459.88;5999987;28;20034;-65
2022/09/29 00:25:31;;;;;;;8.60;4.22;;;;;;;6.69;100.00;99455.72;6000770;28;20130;-65
2022/09/29 00:28:27;;;;;;;10.88;4.65;;;;;;;6.47;100.00;99449.09;6000922;28;20083;-65
2022/09/29 00:31:27;;;;;;;12.93;4.47;;;;;;;6.70;100.00;99446.84;6000693;28;20538;-65
2022/09/29 00:34:23;;;;;;;8.73;4.45;;;;;;;6.63;100.00;99451.06;5977937;28;20053;-65
2022/09/29 00:37:18;;;;;;;10.63;4.50;;;;;;;6.52;100.00;99456.56;6009874;28;20047;-65
2022/09/29 00:40:13;;;;;;;11.85;4.47;;;;;;;6.36;100.00;99448.53;5999103;28;20038;-65
2022/09/29 00:43:13;;;;;;;9.57;4.97;;;;;;;6.26;100.00;99460.91;6000759;28;20088;-65
2022/09/29 00:46:08;;;;;;;10.73;4.07;;;;;;;6.40;100.00;99452.50;6011666;28;20030;-65
2022/09/29 00:49:15;;;;;;;8.10;3.92;;;;;;;6.58;100.00;99458.59;6018068;28;20042;-65
2022/09/29 00:52:20;;;;;;;9.82;4.65;;;;;;;6.35;100.00;99437.16;5999576;28;20109;-65
2022/09/29 00:55:28;;;;;;;9.05;4.18;;;;;;;6.50;100.00;99463.78;6019288;28;20065;-65
2022/09/29 00:58:35;;;;;;;9.23;4.15;;;;;;;6.36;100.00;99454.59;6029271;28;20048;-65
2022/09/29 01:01:31;;;;;;;8.90;4.05;;;;;;;6.23;100.00;99442.78;5999834;28;20034;-65
2022/09/29 01:04:26;;;;;;;8.05;3.65;;;;;;;6.18;100.00;99439.78;5999757;28;20994;-65
2022/09/29 01:07:23;;;;;;;8.30;4.25;;;;;;;6.42;100.00;99443.47;5999832;28;20030;-65
2022/09/29 01:10:18;;;;;;;6.90;4.00;;;;;;;5.99;100.00;99453.91;5998040;28;20034;-65
2022/09/29 01:13:14;;;;;;;6.32;3.22;;;;;;;6.35;100.00;99446.88;5998197;28;20035;-65
2022/09/29 01:16:09;;;;;;;8.40;3.40;;;;;;;6.33;100.00;99452.25;5999510;28;20440;-65
2022/09/29 01:19:34;;;;;;;7.25;3.50;;;;;;;6.50;100.00;99458.50;5999300;28;20270;-65
2022/09/29 01:23:05;;;;;;;7.07;3.65;;;;;;;6.47;100.00;99458.81;5998924;28;20386;-65
2022/09/29 01:26:42;;;;;;;11.55;4.03;;;;;;;6.02;100.00;99465.94;5998727;28;20069;-65
2022/09/29 01:30:03;;;;;;;7.60;3.20;;;;;;;6.16;100.00;99470.69;5998659;28;20121;-65
2022/09/29 01:33:25;;;;;;;8.13;3.33;;;;;;;5.77;100.00;99452.47;5999388;28;20066;-65
2022/09/29 01:36:42;;;;;;;8.30;3.53;;;;;;;5.74;100.00;99471.16;5999680;28;20035;-65
2022/09/29 01:39:47;;;;;;;7.72;3.47;;;;;;;5.62;100.00;99459.19;5997975;28;20061;-65
2022/09/29 01:42:56;;;;;;;7.57;3.50;;;;;;;5.82;100.00;99470.44;6006302;28;20038;-65
2022/09/29 01:46:15;;;;;;;7.35;3.90;;;;;;;6.04;100.00;99471.84;5998772;28;20414;-65
2022/09/29 01:49:11;;;;;;;9.70;3.40;;;;;;;6.07;100.00;99471.56;5998192;28;20070;-65
2022/09/29 01:52:22;;;;;;;7.30;3.75;;;;;;;6.25;100.00;99461.91;5997186;28;20053;-65
2022/09/29 01:55:20;;;;;;;10.77;3.67;;;;;;;5.99;100.00;99456.53;5998004;28;20030;-65
2022/09/29 01:58:19;;;;;;;7.85;3.72;;;;;;;5.89;100.00;99466.28;5999114;28;20482;-65
2022/09/29 02:01:15;;;;;;;8.05;3.72;;;;;;;5.67;100.00;99464.84;6013668;28;20394;-65
2022/09/29 02:04:18;;;;;;;9.05;4.03;;;;;;;5.75;100.00;99459.69;5998870;28;20034;-65
2022/09/29 02:07:21;;;;;;;9.85;3.80;;;;;;;5.61;100.00;99454.91;5997431;28;20109;-65
2022/09/29 02:10:25;;;;;;;7.45;3.42;;;;;;;5.74;100.00;99463.28;5984935;28;20102;-65
2022/09/29 02:13:22;;;;;;;9.07;3.05;;;;;;;5.64;100.00;99459.03;5998841;28;20043;-65
2022/09/29 02:16:21;;;;;;;8.00;3.72;;;;;;;5.74;100.00;99476.44;5997939;28;20085;-65
2022/09/29 02:19:25;;;;;;;6.85;3.38;;;;;;;5.56;100.00;99475.56;5998279;28;20039;-66
2022/09/29 02:22:20;;;;;;;7.82;3.75;;;;;;;5.63;100.00;99481.88;5998030;28;20395;-66
2022/09/29 02:25:17;;;;;;;7.68;3.17;;;;;;;5.50;100.00;99470.84;5996694;28;20034;-66
2022/09/29 02:28:13;;;;;;;8.45;3.38;;;;;;;5.43;100.00;99470.59;5997204;28;20049;-65
2022/09/29 02:31:08;;;;;;;7.63;3.75;;;;;;;5.23;100.00;99469.03;6012990;28;20054;-66
2022/09/29 02:34:07;;;;;;;9.00;3.20;;;;;;;5.37;100.00;99465.94;5997036;28;20418;-65
2022/09/29 02:37:09;;;;;;;8.80;3.65;;;;;;;5.73;100.00;99484.47;5997053;28;20053;-66
2022/09/29 02:40:13;;;;;;;8.50;3.13;;;;;;;5.74;100.00;99486.13;5997648;28;20035;-66
2022/09/29 02:43:41;;;;;;;9.70;4.72;;;;;;;6.02;100.00;99487.81;5998242;28;20061;-66
2022/09/29 02:47:01;;;;;;;9.02;4.15;;;;;;;5.87;100.00;99491.91;5993255;28;20364;-65
2022/09/29 02:50:20;;;;;;;9.05;4.07;;;;;;;5.89;100.00;99498.69;5998553;28;20035;-65
2022/09/29 02:53:36;;;;;;;10.02;4.35;;;;;;;5.72;100.00;99491.53;5996877;28;20062;-65
2022/09/29 02:57:03;;;;;;;9.65;3.80;;;;;;;5.66;100.00;99497.38;5983581;28;20051;-66
2022/09/29 03:00:09;;;;;;;9.90;4.32;;;;;;;5.43;100.00;99496.88;5998301;28;20042;-66
2022/09/29 03:03:04;;;;;;;7.72;3.72;;;;;;;5.33;100.00;99482.13;6000178;28;20407;-66
2022/09/29 03:06:00;;;;;;;11.70;4.37;;;;;;;5.51;100.00;99496.19;6002930;28;20043;-65
2022/09/29 03:08:55;;;;;;;7.05;3.33;;;;;;;5.55;100.00;99480.94;6002989;28;20113;-66
2022/09/29 03:11:50;;;;;;;10.80;4.47;;;;;;;5.43;100.00;99491.63;6001481;28;20035;-66
2022/09/29 03:14:46;;;;;;;10.83;4.13;;;;;;;5.48;100.00;99507.00;6002468;28;20285;-65
2022/09/29 03:17:41;;;;;;;8.53;4.13;;;;;;;5.53;100.00;99499.50;6001922;28;20038;-65
2022/09/29 03:20:36;;;;;;;10.10;4.77;;;;;;;5.52;100.00;99510.97;6001788;28;20325;-65
2022/09/29 03:23:32;;;;;;;8.00;4.10;;;;;;;5.42;100.00;99507.56;6002055;28;20073;-66
2022/09/29 03:26:29;;;;;;;8.27;4.00;;;;;;;5.47;100.00;99494.81;6002435;28;20073;-66
2022/09/29 03:29:24;;;;;;;9.30;4.10;;;;;;;5.55;100.00;99504.59;6002366;28;20026;-66
2022/09/29 03:32:19;;;;;;;11.53;4.50;;;;;;;5.68;100.00;99492.78;6001381;28;20038;-66
2022/09/29 03:35:15;;;;;;;8.50;3.90;;;;;;;5.55;100.00;99510.69;6001739;28;20126;-65
2022/09/29 03:38:10;;;;;;;13.20;4.70;;;;;;;4.91;100.00;99496.59;6001806;28;20425;-65
2022/09/29 03:41:06;;;;;;;12.40;4.73;;;;;;;5.31;100.00;99495.41;6001316;28;20035;-66
2022/09/29 03:44:01;;;;;;;11.70;5.07;;;;;;;5.52;100.00;99500.47;6001418;28;20381;-65
2022/09/29 03:46:56;;;;;;;11.85;5.13;;;;;;;5.74;100.00;99510.63;6001537;28;20470;-65
2022/09/29 03:49:52;;;;;;;14.40;5.60;;;;;;;5.67;100.00;99504.28;6001508;28;20030;-66
2022/09/29 03:52:47;;;;;;;13.00;5.27;;;;;;;5.72;100.00;99496.78;6000701;28;20093;-66
2022/09/29 03:55:47;;;;;;;10.97;4.87;;;;;;;5.29;100.00;99522.81;6012844;28;20293;-66
2022/09/29 03:58:42;;;;;;;11.13;4.50;;;;;;;4.99;100.00;99518.56;6003769;28;20089;-66
2022/09/29 04:01:37;;;;;;;11.60;5.17;;;;;;;5.18;100.00;99529.06;6000296;28;20027;-66
2022/09/29 04:04:33;;;;;;;12.37;5.63;;;;;;;4.85;100.00;99526.88;6000975;28;20274;-66
2022/09/29 04:07:30;;;;;;;12.83;5.13;;;;;;;4.77;100.00;99524.13;6000637;28;20069;-67
2022/09/29 04:10:25;;;;;;;12.77;5.72;;;;;;;4.99;100.00;99526.47;6001083;28;20286;-67
2022/09/29 04:13:20;;;;;;;14.27;5.63;;;;;;;5.02;100.00;99533.22;6009394;28;20138;-67
2022/09/29 04:16:16;;;;;;;18.33;5.83;;;;;;;4.77;100.00;99527.56;6002991;28;20023;-67
2022/09/29 04:19:11;;;;;;;14.77;6.03;;;;;;;4.90;100.00;99539.59;6001146;28;20365;-67
2022/09/29 04:22:06;;;;;;;14.40;5.67;;;;;;;5.04;100.00;99541.78;6000305;28;20089;-67
2022/09/29 04:25:02;;;;;;;18.53;6.70;;;;;;;4.90;100.00;99545.66;6000983;28;20026;-67
2022/09/29 04:27:57;;;;;;;21.17;7.03;;;;;;;4.98;100.00;99542.34;6001154;28;20364;-67
2022/09/29 04:30:52;;;;;;;18.73;6.70;;;;;;;5.27;100.00;99532.66;6000161;28;20294;-67
2022/09/29 04:33:48;;;;;;;15.90;6.80;;;;;;;5.46;100.00;99537.03;6002156;28;20035;-67
2022/09/29 04:36:43;;;;;;;15.23;6.43;;;;;;;5.30;100.00;99527.06;6000681;28;20537;-65
2022/09/29 04:39:39;;;;;;;17.10;7.23;;;;;;;5.39;100.00;99548.09;6001430;28;20043;-65
2022/09/29 04:42:34;;;;;;;16.83;6.97;;;;;;;5.34;100.00;99554.75;6000025;28;20411;-65
2022/09/29 04:45:29;;;;;;;19.08;7.13;;;;;;;5.43;100.00;99539.94;6000101;28;20038;-65
2022/09/29 04:48:25;;;;;;;16.57;6.33;;;;;;;5.48;100.00;99540.34;6000523;28;20031;-65
2022/09/29 04:51:20;;;;;;;13.30;5.77;;;;;;;5.06;100.00;99545.09;5999438;28;20023;-65
2022/09/29 04:54:16;;;;;;;17.63;7.10;;;;;;;5.38;100.00;99550.88;6000733;28;20026;-65
2022/09/29 04:57:11;;;;;;;17.85;8.23;;;;;;;5.54;100.00;99558.16;6000782;28;20033;-65
2022/09/29 05:00:07;;;;;;;18.00;7.03;;;;;;;5.43;100.00;99548.66;5998963;28;20035;-65
2022/09/29 05:03:03;;;;;;;19.50;7.35;;;;;;;5.41;100.00;99535.63;6000659;28;20038;-67
2022/09/29 05:05:58;;;;;;;18.53;7.17;;;;;;;5.44;100.00;99545.03;6000138;28;20161;-68
2022/09/29 05:08:53;;;;;;;20.43;7.47;;;;;;;5.17;100.00;99547.56;6000238;28;20098;-67
2022/09/29 05:11:49;;;;;;;20.93;8.43;;;;;;;5.34;100.00;99546.88;5999446;28;20369;-68
2022/09/29 05:14:44;;;;;;;18.17;7.53;;;;;;;5.54;100.00;99561.63;5999611;28;20034;-66
2022/09/29 05:17:39;;;;;;;20.13;7.80;;;;;;;5.20;100.00;99544.66;5999413;28;20073;-67
2022/09/29 05:20:35;;;;;;;17.83;7.53;;;;;;;5.47;100.00;99571.03;5998816;28;20117;-67
2022/09/29 05:23:30;;;;;;;19.80;8.00;;;;;;;5.38;100.00;99558.78;6006790;28;20310;-67
2022/09/29 05:26:25;;;;;;;22.75;9.50;;;;;;;5.58;100.00;99578.78;5999942;28;20157;-67
2022/09/29 05:29:22;;;;;;;22.73;8.53;;;;;;;5.54;100.00;99564.25;6000456;28;20039;-67
2022/09/29 05:32:17;;;;;;;20.90;8.73;;;;;;;5.13;100.00;99575.94;5994588;28;20281;-67
2022/09/29 05:35:13;;;;;;;18.40;8.00;;;;;;;4.94;100.00;99577.75;5999576;28;20034;-67
2022/09/29 05:38:08;;;;;;;28.10;9.20;;;;;;;5.13;100.00;99570.69;5998526;28;20035;-67
2022/09/29 05:41:05;;;;;;;24.25;8.57;;;;;;;4.89;100.00;99577.34;6004398;28;20038;-67
2022/09/29 05:44:00;;;;;;;22.88;8.10;;;;;;;4.97;100.00;99580.94;5999045;28;20121;-67
2022/09/29 05:46:56;;;;;;;19.27;8.53;;;;;;;4.99;100.00;99571.13;6002129;28;20031;-67
2022/09/29 05:49:51;;;;;;;20.90;8.53;;;;;;;5.21;100.00;99580.50;6001898;28;20035;-67
2022/09/29 05:52:48;;;;;;;20.00;8.17;;;;;;;5.28;100.00;99587.69;6010201;28;20035;-66
2022/09/29 05:55:43;;;;;;;19.30;7.78;;;;;;;5.61;100.00;99590.81;6000493;28;20042;-66
2022/09/29 05:58:39;;;;;;;21.13;9.30;;;;;;;5.71;100.00;99574.03;6000893;28;20495;-66
2022/09/29 06:01:34;;;;;;;23.90;9.10;;;;;;;5.84;100.00;99568.47;6003312;28;20030;-66
2022/09/29 06:04:30;;;;;;;24.20;10.27;;;;;;;6.22;100.00;99588.53;5998766;28;20050;-66
2022/09/29 06:07:25;;;;;;;22.47;9.23;;;;;;;6.32;100.00;99568.25;5998923;28;20046;-66
2022/09/29 06:10:21;;;;;;;23.33;10.47;;;;;;;6.33;100.00;99581.25;5998441;28;20066;-66
2022/09/29 06:13:16;;;;;;;26.77;9.52;;;;;;;6.40;100.00;99577.09;5998601;28;20759;-66
2022/09/29 06:16:12;;;;;;;26.70;9.97;;;;;;;6.33;100.00;99580.47;5998878;28;20034;-66
2022/09/29 06:19:07;;;;;;;25.48;9.52;;;;;;;6.32;100.00;99573.53;5998452;28;20044;-66
2022/09/29 06:22:03;;;;;;;28.47;10.60;;;;;;;6.31;100.00;99587.66;5998120;28;20553;-66
2022/09/29 06:24:58;;;;;;;25.95;10.70;;;;;;;6.49;100.00;99588.53;5998523;28;20093;-66
2022/09/29 06:27:53;;;;;;;24.17;10.33;;;;;;;6.41;100.00;99589.25;5998011;28;20039;-66
2022/09/29 06:30:49;;;;;;;24.80;11.10;;;;;;;6.51;100.00;99586.56;5998096;28;20436;-66
2022/09/29 06:33:44;;;;;;;28.33;9.55;;;;;;;6.75;100.00;99586.81;5997987;28;20034;-66
2022/09/29 06:39:55;;;;;;;25.85;10.18;;;;;;;7.05;100.00;99575.09;6017047;28;20043;-66
2022/09/29 06:42:50;;;;;;;27.17;9.73;;;;;;;7.32;100.00;99568.88;6014022;28;20355;-66
2022/09/29 06:45:45;;;;;;;23.87;9.50;;;;;;;7.34;100.00;99578.28;6010824;28;20043;-66
2022/09/29 06:48:41;;;;;;;23.10;9.87;;;;;;;7.48;100.00;99580.38;6022508;28;20034;-66
2022/09/29 06:51:36;;;;;;;24.90;11.23;;;;;;;7.62;100.00;99589.53;6003116;28;20063;-66
2022/09/29 06:54:31;;;;;;;28.02;9.48;;;;;;;7.71;100.00;99583.34;6003532;28;20145;-66
2022/09/29 06:57:27;;;;;;;26.43;10.03;;;;;;;7.69;100.00;99585.31;6019680;28;20037;-66
2022/09/29 07:00:22;;;;;;;24.13;9.75;;;;;;;8.08;100.00;99580.38;6002894;28;20382;-66
2022/09/29 07:03:17;;;;;;;27.52;10.50;;;;;;;8.09;100.00;99579.41;6002321;28;20133;-66
2022/09/29 07:06:13;;;;;;;24.70;10.03;;;;;;;8.36;100.00;99592.44;6015874;28;20034;-66
2022/09/29 07:09:14;;;;;;;24.87;9.93;;;;;;;8.36;100.00;99595.91;6003372;28;20030;-66
2022/09/29 07:12:10;;;;;;;22.80;8.88;;;;;;;8.41;100.00;99584.84;6021199;28;20804;-66
2022/09/29 07:15:06;;;;;;;22.98;10.23;;;;;;;8.63;100.00;99596.66;6002034;28;20037;-66
2022/09/29 07:18:01;;;;;;;19.90;9.32;;;;;;;8.74;100.00;99583.13;6012140;28;20039;-66
2022/09/29 07:20:58;;;;;;;22.27;9.47;;;;;;;8.81;100.00;99598.19;6001629;28;20097;-65
2022/09/29 07:23:53;;;;;;;20.58;8.85;;;;;;;9.06;100.00;99599.03;6002266;28;20505;-66
2022/09/29 07:26:48;;;;;;;19.73;8.40;;;;;;;9.01;99.21;99596.06;6001831;28;20035;-66
2022/09/29 07:29:45;;;;;;;26.93;10.17;;;;;;;9.10;98.34;99607.50;6001667;28;20026;-66
2022/09/29 07:32:40;;;;;;;21.50;8.43;;;;;;;9.21;97.32;99597.41;6001003;28;20035;-66
2022/09/29 07:35:35;;;;;;;17.73;8.10;;;;;;;9.30;96.08;99588.47;6000479;28;20066;-66
2022/09/29 07:38:31;;;;;;;16.60;8.17;;;;;;;9.43;94.40;99603.88;6001266;28;20474;-66
2022/09/29 07:41:27;;;;;;;20.30;9.38;;;;;;;9.61;94.61;99611.63;6001257;28;20270;-66
2022/09/29 07:44:22;;;;;;;17.80;7.37;;;;;;;9.73;93.18;99616.38;6001813;28;20099;-66
2022/09/29 07:47:17;;;;;;;17.03;8.40;;;;;;;9.85;92.34;99608.94;6008161;28;20113;-66
2022/09/29 07:50:13;;;;;;;18.33;7.97;;;;;;;10.10;92.04;99621.13;6001134;28;20046;-66
2022/09/29 07:53:08;;;;;;;17.70;8.17;;;;;;;10.16;91.18;99620.50;6015670;28;20038;-67
2022/09/29 07:56:08;;;;;;;17.70;8.38;;;;;;;10.09;89.61;99628.25;6015633;28;20361;-66
2022/09/29 07:59:04;;;;;;;20.08;8.93;;;;;;;10.19;90.36;99620.16;6017453;28;20414;-66
2022/09/29 08:02:01;;;;;;;19.30;8.82;;;;;;;10.44;89.55;99626.16;6000903;28;20031;-66
2022/09/29 08:04:56;;;;;;;16.60;8.88;;;;;;;10.63;89.21;99631.88;6007606;28;20062;-66
2022/09/29 08:07:52;;;;;;;18.40;8.40;;;;;;;10.86;88.75;99626.63;6005059;28;20479;-66
2022/09/29 08:10:48;;;;;;;16.77;7.97;;;;;;;11.11;86.93;99640.59;6000833;28;20062;-66
2022/09/29 08:13:44;;;;;;;15.85;8.15;;;;;;;11.06;85.87;99627.81;6000943;28;20429;-66
2022/09/29 08:16:39;;;;;;;18.95;8.20;;;;;;;11.25;85.19;99643.28;5999249;28;20081;-66
2022/09/29 08:19:35;;;;;;;22.10;9.37;;;;;;;11.41;86.48;99639.72;6000644;28;20121;-66
2022/09/29 08:22:30;;;;;;;18.75;8.82;;;;;;;11.19;83.11;99637.88;6004964;28;20286;-66
2022/09/29 08:25:25;;;;;;;14.87;7.97;;;;;;;11.31;84.92;99647.06;6006987;28;20087;-67
2022/09/29 08:28:21;;;;;;;16.65;8.93;;;;;;;11.57;85.13;99652.84;6000436;28;20038;-66
2022/09/29 08:31:20;;;;;;;18.80;8.53;;;;;;;11.45;83.15;99643.66;5999899;28;20035;-66
2022/09/29 08:34:16;;;;;;;17.80;8.55;;;;;;;11.42;85.04;99649.31;6004204;28;20027;-66
2022/09/29 08:37:11;;;;;;;22.90;9.27;;;;;;;11.68;85.75;99655.09;6019281;28;20105;-67
2022/09/29 08:40:07;;;;;;;17.50;8.73;;;;;;;11.97;84.67;99654.34;5999720;28;20069;-66
2022/09/29 08:43:29;;;;;;;18.50;8.52;;;;;;;12.33;82.21;99660.63;6006204;28;20678;-66
2022/09/29 08:46:29;;;;;;;18.10;9.00;;;;;;;12.19;81.87;99652.63;5999290;28;20030;-66
2022/09/29 08:49:32;;;;;;;18.20;8.15;;;;;;;12.34;80.00;99659.59;5998519;28;20031;-66
2022/09/29 08:52:34;;;;;;;17.08;7.88;;;;;;;12.44;79.82;99656.69;6013552;28;20030;-66
2022/09/29 08:55:51;;;;;;;15.00;7.18;;;;;;;12.40;78.48;99660.69;5999597;28;20045;-66
2022/09/29 08:58:47;;;;;;;17.10;7.50;;;;;;;12.47;80.67;99656.31;5998445;28;20038;-66
2022/09/29 09:02:04;;;;;;;15.82;6.90;;;;;;;12.54;78.13;99670.50;5998560;28;20479;-67
2022/09/29 09:05:26;;;;;;;14.45;6.88;;;;;;;12.50;76.69;99674.56;6006968;28;20115;-66
2022/09/29 09:08:36;;;;;;;14.85;7.57;;;;;;;12.39;78.57;99675.03;5984080;28;20486;-66
2022/09/29 09:12:09;;;;;;;15.35;7.05;;;;;;;12.52;79.31;99675.19;6005902;28;20462;-66
2022/09/29 09:15:39;;;;;;;14.13;7.00;;;;;;;12.70;78.78;99667.66;5999014;28;20085;-66
2022/09/29 09:18:59;;;;;;;13.93;6.18;;;;;;;12.81;76.42;99677.00;5995832;28;20625;-66
2022/09/29 09:22:12;;;;;;;12.02;6.30;;;;;;;12.81;76.88;99664.53;6002941;28;20110;-66
2022/09/29 09:25:14;;;;;;;15.65;6.63;;;;;;;12.93;76.34;99684.34;5998257;28;20027;-66
2022/09/29 09:28:26;;;;;;;13.68;8.48;;;;;;;12.94;75.46;99674.50;5999848;28;20121;-66
2022/09/29 09:31:30;;;;;;;16.27;7.47;;;;;;;13.19;75.79;99683.00;5998411;28;20031;-66
2022/09/29 09:34:30;;;;;;;13.93;6.85;;;;;;;13.49;77.63;99680.06;6001016;28;20467;-66
2022/09/29 09:37:30;;;;;;;13.68;7.10;;;;;;;13.64;74.65;99672.81;5997398;28;20033;-66
2022/09/29 09:40:28;;;;;;;13.25;6.68;;;;;;;13.26;73.86;99686.56;5994029;28;20038;-66
2022/09/29 09:43:27;;;;;;;11.63;6.03;;;;;;;13.20;74.49;99685.50;6004054;28;20035;-66
2022/09/29 09:46:27;;;;;;;12.00;6.43;;;;;;;13.43;73.75;99688.78;5999406;28;20386;-66
2022/09/29 09:49:26;;;;;;;14.50;6.20;;;;;;;13.49;73.14;99672.06;5997114;28;20125;-66
2022/09/29 09:52:25;;;;;;;13.55;6.28;;;;;;;13.85;73.58;99685.31;5998041;28;20066;-66
2022/09/29 09:55:24;;;;;;;13.85;7.28;;;;;;;14.14;73.05;99671.78;6000737;28;20034;-66
2022/09/29 09:58:47;;;;;;;14.35;7.03;;;;;;;13.95;72.18;99684.97;5998066;28;20035;-66
2022/09/29 10:01:42;;;;;;;13.95;6.82;;;;;;;13.84;72.50;99682.81;6009808;28;20038;-66
2022/09/29 10:04:38;;;;;;;13.07;6.60;;;;;;;13.75;73.15;99684.81;5998640;28;20483;-66
2022/09/29 10:07:33;;;;;;;14.70;7.50;;;;;;;13.59;74.22;99687.72;5997172;28;20530;-66
2022/09/29 10:10:29;;;;;;;15.13;7.40;;;;;;;13.92;74.34;99694.16;6009970;28;20606;-66
2022/09/29 10:13:29;;;;;;;11.40;6.47;;;;;;;14.17;73.04;99674.06;6012604;28;20281;-66
2022/09/29 10:16:28;;;;;;;14.80;7.80;;;;;;;14.28;72.44;99686.03;5996384;28;20035;-66
2022/09/29 10:19:57;;;;;;;14.05;6.97;;;;;;;14.72;71.53;99683.88;6013248;28;20150;-66
2022/09/29 10:22:52;;;;;;;14.23;6.72;;;;;;;14.61;71.03;99681.75;6002431;28;20047;-67
2022/09/29 10:26:00;;;;;;;10.37;4.63;;;;;;;13.99;70.81;99689.72;6016430;28;20550;-66
2022/09/29 10:29:00;;;;;;;9.35;4.03;;;;;;;13.46;72.39;99685.75;5999021;28;20081;-66
2022/09/29 10:32:20;;;;;;;11.02;3.97;;;;;;;13.87;71.98;99677.94;5996060;28;20030;-66
2022/09/29 10:35:22;;;;;;;8.30;3.50;;;;;;;14.44;69.93;99693.75;6000603;28;20494;-66
2022/09/29 10:38:25;;;;;;;6.05;2.95;;;;;;;14.48;67.57;99686.19;6011624;28;20474;-66
2022/09/29 10:41:20;;;;;;;5.30;2.83;;;;;;;14.17;67.02;99686.56;5997203;28;20650;-66
2022/09/29 10:44:20;;;;;;;5.97;3.20;;;;;;;14.47;67.72;99673.88;5998106;28;20058;-66
2022/09/29 10:47:16;;;;;;;7.63;3.53;;;;;;;14.95;69.11;99688.88;5997875;28;20041;-66
2022/09/29 10:50:23;;;;;;;9.97;3.43;;;;;;;15.42;64.00;99702.22;5996357;28;20035;-66
2022/09/29 10:53:24;;;;;;;7.72;3.00;;;;;;;15.93;63.07;99691.81;5998277;28;20540;-66
2022/09/29 10:56:21;;;;;;;6.10;2.97;;;;;;;16.22;60.34;99687.91;5996721;28;20031;-66
2022/09/29 10:59:17;;;;;;;5.18;2.17;;;;;;;16.28;61.06;99695.09;5997744;28;20039;-66
2022/09/29 11:02:20;;;;;;;7.53;3.17;;;;;;;15.54;62.24;99688.28;5998061;28;20390;-66
2022/09/29 11:05:19;;;;;;;6.72;3.42;;;;;;;15.18;63.32;99705.44;5996852;28;20046;-66
2022/09/29 11:08:14;;;;;;;6.07;2.60;;;;;;;15.33;66.01;99703.41;5997574;28;20039;-66
2022/09/29 11:11:26;;;;;;;5.88;2.92;;;;;;;15.54;64.02;99688.28;6015114;28;20374;-66
2022/09/29 11:14:25;;;;;;;7.13;2.55;;;;;;;16.14;63.46;99706.84;5998203;28;20027;-66
2022/09/29 11:17:39;;;;;;;6.15;2.70;;;;;;;16.73;61.55;99712.13;5997377;28;20026;-67
2022/09/29 11:20:35;;;;;;;5.35;2.63;;;;;;;16.39;58.78;99710.50;6004383;28;20129;-66
2022/09/29 11:23:38;;;;;;;4.88;2.45;;;;;;;16.31;59.26;99708.03;5998616;28;20030;-67
2022/09/29 11:26:46;;;;;;;4.95;2.50;;;;;;;16.55;57.35;99720.81;6009836;28;20044;-67
2022/09/29 11:29:48;;;;;;;4.68;2.42;;;;;;;16.98;57.73;99715.75;6002692;28;20042;-66
2022/09/29 11:33:06;;;;;;;5.80;2.58;;;;;;;17.20;57.94;99713.63;6011072;28;20517;-66
2022/09/29 11:36:18;;;;;;;4.57;2.13;;;;;;;16.81;58.46;99719.09;6031559;28;20030;-66
2022/09/29 11:39:33;;;;;;;5.38;2.08;;;;;;;16.93;55.26;99714.75;6006833;28;20536;-66
2022/09/29 11:43:00;;;;;;;5.00;2.10;;;;;;;16.61;55.48;99719.97;6001787;28;20030;-66
2022/09/29 11:46:10;;;;;;;5.47;2.50;;;;;;;16.44;56.79;99713.38;6001119;28;20108;-66
2022/09/29 11:49:24;;;;;;;3.50;1.90;;;;;;;16.20;57.09;99721.25;6000621;28;20038;-66
2022/09/29 11:52:48;;;;;;;4.28;1.90;;;;;;;15.89;58.58;99705.81;5999580;28;20069;-66
2022/09/29 11:55:59;;;;;;;3.38;1.70;;;;;;;16.38;56.50;99719.59;5996164;28;20051;-66
2022/09/29 11:59:23;;;;;;;2.92;1.75;;;;;;;16.49;56.28;99716.28;5998313;28;20076;-66
2022/09/29 12:02:27;;;;;;;4.47;1.83;;;;;;;16.75;54.68;99725.28;6002134;28;20478;-66
2022/09/29 12:05:48;;;;;;;3.55;1.77;;;;;;;16.82;55.46;99731.47;6008877;28;20035;-66
2022/09/29 12:08:55;;;;;;;3.53;1.50;;;;;;;16.80;55.16;99702.22;6001408;28;20026;-66
2022/09/29 12:12:03;;;;;;;3.00;1.55;;;;;;;17.06;53.09;99709.34;6000006;28;20077;-66
2022/09/29 12:15:04;;;;;;;4.82;1.55;;;;;;;16.73;53.12;99725.50;6005185;28;20423;-66
2022/09/29 12:18:03;;;;;;;3.38;1.52;;;;;;;16.09;55.63;99726.16;5999678;28;20727;-67
2022/09/29 12:21:00;;;;;;;4.85;2.38;;;;;;;15.66;59.92;99724.06;6014186;28;20466;-66
2022/09/29 12:23:57;;;;;;;6.35;2.85;;;;;;;15.12;65.57;99719.56;6004866;28;20031;-66
2022/09/29 12:26:53;;;;;;;5.07;2.83;;;;;;;14.67;66.48;99712.19;6010734;28;20430;-66
2022/09/29 12:29:56;;;;;;;23.10;11.18;;;;;;;14.55;67.15;99713.72;6000490;28;20114;-66
2022/09/29 12:33:07;;;;;;;4.28;1.40;;;;;;;14.09;64.97;99708.88;5999011;28;20041;-66
2022/09/29 12:36:45;;;;;;;3.17;1.50;;;;;;;14.02;64.20;99723.97;6009213;28;20458;-65
2022/09/29 12:39:55;;;;;;;3.85;1.70;;;;;;;13.93;64.79;99729.66;5988567;28;20038;-66
2022/09/29 12:43:12;;;;;;;3.70;1.40;;;;;;;14.25;67.04;99723.75;6011612;28;20141;-66
2022/09/29 12:46:23;;;;;;;3.20;1.77;;;;;;;14.68;64.50;99719.97;5993435;28;20086;-66
2022/09/29 12:49:28;;;;;;;3.95;1.67;;;;;;;14.82;63.77;99721.69;5999591;28;20451;-66
2022/09/29 12:52:33;;;;;;;3.28;1.70;;;;;;;15.05;64.07;99723.25;5998711;28;20093;-66
2022/09/29 12:55:42;;;;;;;3.40;1.60;;;;;;;14.99;62.43;99727.53;5999217;28;20387;-66
2022/09/29 12:58:43;;;;;;;5.00;2.03;;;;;;;14.90;62.61;99718.03;6008411;28;20091;-66
2022/09/29 13:01:38;;;;;;;4.13;1.30;;;;;;;15.22;63.64;99712.00;6002112;28;20509;-66
2022/09/29 13:05:20;;;;;;;3.25;1.30;;;;;;;15.29;61.27;99723.53;6000088;28;20034;-66
2022/09/29 13:08:27;;;;;;;1.30;0.60;;;;;;;15.59;57.60;99723.25;5993270;28;20051;-66
2022/09/29 13:11:57;;;;;;;1.48;0.60;;;;;;;16.29;55.32;99720.00;5999036;28;20035;-66
2022/09/29 13:15:17;;;;;;;3.25;0.90;;;;;;;16.51;56.11;99734.78;6002348;28;20364;-66
2022/09/29 13:18:39;;;;;;;2.25;1.10;;;;;;;16.91;52.68;99731.03;5998740;28;20035;-66
2022/09/29 13:21:47;;;;;;;4.25;1.70;;;;;;;16.39;53.74;99739.94;6001741;28;20034;-66
2022/09/29 13:25:04;;;;;;;3.63;1.33;;;;;;;16.25;55.72;99740.97;6016221;28;20039;-66
2022/09/29 13:27:59;;;;;;;3.28;1.10;;;;;;;16.02;55.20;99724.53;6006692;28;20061;-66
2022/09/29 13:31:00;;;;;;;1.77;1.00;;;;;;;15.78;55.23;99731.31;5998379;28;20034;-66
2022/09/29 13:34:00;;;;;;;2.13;0.80;;;;;;;15.89;56.52;99735.22;5998020;28;20270;-66
2022/09/29 13:37:05;;;;;;;1.75;0.93;;;;;;;15.68;55.92;99738.06;5997682;28;20114;-66
2022/09/29 13:40:08;;;;;;;2.08;1.00;;;;;;;15.41;57.47;99737.97;5999609;28;20034;-66
2022/09/29 13:43:06;;;;;;;2.25;1.00;;;;;;;15.43;57.15;99732.44;5997593;28;20449;-66
2022/09/29 13:46:30;;;;;;;1.98;1.00;;;;;;;15.65;56.91;99735.81;5999068;28;20106;-66
2022/09/29 13:49:27;;;;;;;2.05;1.15;;;;;;;15.99;57.74;99735.63;5998588;28;20104;-66
2022/09/29 13:52:30;;;;;;;3.00;1.00;;;;;;;15.93;57.74;99736.44;5998414;28;20065;-66
2022/09/29 13:55:53;;;;;;;1.50;0.90;;;;;;;15.68;56.93;99733.53;6007064;28;20051;-66
2022/09/29 13:58:48;;;;;;;1.73;0.77;;;;;;;15.54;55.63;99741.72;5999092;28;20114;-66
2022/09/29 14:01:43;;;;;;;1.57;0.90;;;;;;;15.44;58.09;99723.38;5998204;28;20039;-66
2022/09/29 14:04:49;;;;;;;2.10;0.80;;;;;;;15.12;56.88;99738.25;6003411;28;20034;-66
2022/09/29 14:07:56;;;;;;;1.75;0.82;;;;;;;15.18;57.41;99747.31;6011520;28;20177;-66
2022/09/29 14:10:59;;;;;;;;;;;;;;;14.95;58.95;99742.28;6000683;28;20478;-66
2022/09/29 14:13:57;;;;;;;3.35;1.02;;;;;;;15.20;59.57;99743.44;6020866;28;19925;-66